createdAt,value
2019-03-04T00:00:45.882Z,986.44
2019-03-04T00:01:45.910Z,986.41
2019-03-04T00:02:45.940Z,986.32
2019-03-04T00:03:45.965Z,986.36
2019-03-04T00:04:45.996Z,986.31
2019-03-04T00:05:46.021Z,986.27
2019-03-04T00:06:46.048Z,986.32
2019-03-04T00:07:46.077Z,986.24
2019-03-04T00:08:46.102Z,986.26
2019-03-04T00:09:46.131Z,986.15
2019-03-04T00:10:46.158Z,986.20
2019-03-04T00:11:46.188Z,986.11
2019-03-04T00:12:46.212Z,986.18
2019-03-04T00:13:46.240Z,986.13
2019-03-04T00:14:46.268Z,986.05
2019-03-04T00:15:46.296Z,986.01
2019-03-04T00:16:46.325Z,986.01
2019-03-04T00:17:46.352Z,986.03
2019-03-04T00:18:46.378Z,986.07
2019-03-04T00:19:46.453Z,986.04
2019-03-04T00:20:46.434Z,986.07
2019-03-04T00:21:46.461Z,986.03
2019-03-04T00:22:46.489Z,986.04
2019-03-04T00:23:46.606Z,986.03
2019-03-04T00:24:46.543Z,985.94
2019-03-04T00:25:46.571Z,985.84
2019-03-04T00:26:46.599Z,985.87
2019-03-04T00:27:46.627Z,985.78
2019-03-04T00:28:46.655Z,985.79
2019-03-04T00:30:46.738Z,985.76
2019-03-04T00:31:46.761Z,985.77
2019-03-04T00:32:46.765Z,985.78
2019-03-04T00:34:46.820Z,985.73
2019-03-04T00:35:46.850Z,985.68
2019-03-04T00:36:46.874Z,985.60
2019-03-04T00:37:46.905Z,985.64
2019-03-04T00:38:46.952Z,985.60
2019-03-04T00:39:46.958Z,985.48
2019-03-04T00:40:46.984Z,985.62
2019-03-04T00:41:47.012Z,985.54
2019-03-04T00:42:47.040Z,985.67
2019-03-04T00:43:47.068Z,985.44
2019-03-04T00:44:47.121Z,985.48
2019-03-04T00:47:47.206Z,985.45
2019-03-04T00:48:47.229Z,985.42
2019-03-04T00:49:47.438Z,985.43
2019-03-04T00:50:47.289Z,985.35
2019-03-04T00:51:47.315Z,985.31
2019-03-04T00:52:47.320Z,985.36
2019-03-04T00:53:47.378Z,985.29
2019-03-04T00:54:47.402Z,985.30
2019-03-04T00:56:47.432Z,985.31
2019-03-04T00:57:47.461Z,985.30
2019-03-04T00:58:47.491Z,985.27
2019-03-04T00:59:47.519Z,985.05
2019-03-04T01:00:47.545Z,985.14
2019-03-04T01:01:47.574Z,985.12
2019-03-04T01:02:47.604Z,985.13
2019-03-04T01:03:47.632Z,985.05
2019-03-04T01:04:47.659Z,985.00
2019-03-04T01:05:47.688Z,984.98
2019-03-04T01:06:47.716Z,984.99
2019-03-04T01:07:47.746Z,984.99
2019-03-04T01:08:47.773Z,984.91
2019-03-04T01:09:47.802Z,984.98
2019-03-04T01:10:47.831Z,985.00
2019-03-04T01:11:47.860Z,985.00
2019-03-04T01:12:47.888Z,984.90
2019-03-04T01:13:47.917Z,984.86
2019-03-04T01:14:47.945Z,984.88
2019-03-04T01:15:47.974Z,984.90
2019-03-04T01:16:48.003Z,985.02
2019-03-04T01:17:48.031Z,984.98
2019-03-04T01:18:48.063Z,984.92
2019-03-04T01:19:48.090Z,984.90
2019-03-04T01:20:48.117Z,984.98
2019-03-04T01:21:48.196Z,984.90
2019-03-04T01:22:48.176Z,984.93
2019-03-04T01:23:48.205Z,984.93
2019-03-04T01:24:48.236Z,984.95
2019-03-04T01:25:48.262Z,984.93
2019-03-04T01:26:48.294Z,984.88
2019-03-04T01:27:48.347Z,984.86
2019-03-04T01:28:48.348Z,984.78
2019-03-04T01:29:48.379Z,984.74
2019-03-04T01:30:48.738Z,984.73
2019-03-04T01:31:48.465Z,984.71
2019-03-04T01:32:48.486Z,984.61
2019-03-04T01:33:48.494Z,984.65
2019-03-04T01:34:48.525Z,984.65
2019-03-04T01:35:48.555Z,984.69
2019-03-04T01:36:48.581Z,984.62
2019-03-04T01:37:48.613Z,984.64
2019-03-04T01:38:48.642Z,984.67
2019-03-04T01:39:48.672Z,984.63
2019-03-04T01:40:48.700Z,984.55
2019-03-04T01:41:48.777Z,984.52
2019-03-04T01:42:48.759Z,984.62
2019-03-04T01:43:48.788Z,984.62
2019-03-04T01:44:48.818Z,984.54
2019-03-04T01:45:48.847Z,984.52
2019-03-04T01:46:48.882Z,984.43
2019-03-04T01:47:48.959Z,984.42
2019-03-04T01:48:48.936Z,984.37
2019-03-04T01:49:48.967Z,984.37
2019-03-04T01:50:48.996Z,984.31
2019-03-04T01:51:49.027Z,984.33
2019-03-04T01:52:49.056Z,984.38
2019-03-04T01:53:49.086Z,984.42
2019-03-04T01:54:49.117Z,984.40
2019-03-04T01:55:49.375Z,984.22
2019-03-04T01:56:49.200Z,984.15
2019-03-04T01:58:49.262Z,983.88
2019-03-04T01:59:49.269Z,983.80
2019-03-04T02:01:49.327Z,983.88
2019-03-04T02:02:49.358Z,983.87
2019-03-04T02:03:49.388Z,983.86
2019-03-04T02:04:49.422Z,983.85
2019-03-04T02:05:49.450Z,983.89
2019-03-04T02:06:49.484Z,983.91
2019-03-04T02:07:49.509Z,983.93
2019-03-04T02:08:49.540Z,983.98
2019-03-04T02:09:49.575Z,984.00
2019-03-04T02:10:49.602Z,984.00
2019-03-04T02:11:49.632Z,984.04
2019-03-04T02:12:49.663Z,984.03
2019-03-04T02:13:51.382Z,983.99
2019-03-04T02:14:49.727Z,983.89
2019-03-04T02:15:49.754Z,983.78
2019-03-04T02:16:49.785Z,983.66
2019-03-04T02:17:49.814Z,983.60
2019-03-04T02:18:49.845Z,983.65
2019-03-04T02:19:49.876Z,983.62
2019-03-04T02:20:49.907Z,983.61
2019-03-04T02:21:49.938Z,983.60
2019-03-04T02:22:49.968Z,983.56
2019-03-04T02:23:49.999Z,983.53
2019-03-04T02:24:50.029Z,983.63
2019-03-04T02:25:50.059Z,983.66
2019-03-04T02:26:50.314Z,983.60
2019-03-04T02:27:50.148Z,983.52
2019-03-04T02:28:50.174Z,983.52
2019-03-04T02:30:50.947Z,983.42
2019-03-04T02:31:50.270Z,983.45
2019-03-04T02:33:50.638Z,983.38
2019-03-04T02:34:50.562Z,983.41
2019-03-04T02:35:50.390Z,983.48
2019-03-04T02:38:51.093Z,983.53
2019-03-04T02:39:50.914Z,983.52
2019-03-04T02:42:50.611Z,983.53
2019-03-04T02:43:51.145Z,983.48
2019-03-04T02:44:50.663Z,983.48
2019-03-04T02:45:51.118Z,983.42
2019-03-04T02:46:51.437Z,983.42
2019-03-04T02:47:51.875Z,983.44
2019-03-04T02:49:51.024Z,983.48
2019-03-04T02:51:51.793Z,983.41
2019-03-04T02:54:51.374Z,983.19
2019-03-04T02:55:51.209Z,983.15
2019-03-04T02:57:51.269Z,983.08
2019-03-04T02:58:52.056Z,983.08
2019-03-04T03:02:51.727Z,982.91
2019-03-04T03:04:51.478Z,982.79
2019-03-04T03:05:52.228Z,982.73
2019-03-04T03:08:52.106Z,982.68
2019-03-04T03:10:51.658Z,982.75
2019-03-04T03:11:51.491Z,982.67
2019-03-04T03:12:51.516Z,982.60
2019-03-04T03:13:51.547Z,982.71
2019-03-04T03:14:52.387Z,982.63
2019-03-04T03:16:51.960Z,982.63
2019-03-04T03:17:52.481Z,982.64
2019-03-04T03:18:52.303Z,982.55
2019-03-04T03:20:51.961Z,982.51
2019-03-04T03:21:52.191Z,982.43
2019-03-04T03:22:51.822Z,982.42
2019-03-04T03:26:52.551Z,982.45
2019-03-04T03:32:53.133Z,982.54
2019-03-04T03:33:53.269Z,982.34
2019-03-04T03:41:53.208Z,981.96
2019-03-04T03:47:53.390Z,981.94
2019-03-04T03:52:53.425Z,981.78
2019-03-04T03:53:54.176Z,981.71
2019-03-04T03:54:53.195Z,981.62
2019-03-04T04:00:52.980Z,981.43
2019-03-04T04:03:53.279Z,981.42
2019-03-04T04:04:53.095Z,981.40
2019-03-04T04:05:53.129Z,981.51
2019-03-04T04:06:53.200Z,981.39
2019-03-04T04:08:54.108Z,981.30
2019-03-04T04:13:54.178Z,981.25
2019-03-04T04:15:54.140Z,981.17
2019-03-04T04:16:53.469Z,981.10
2019-03-04T04:17:53.699Z,981.03
2019-03-04T04:19:55.274Z,980.84
2019-03-04T04:20:53.786Z,980.76
2019-03-04T04:21:54.223Z,980.69
2019-03-04T04:22:53.642Z,980.71
2019-03-04T04:26:54.169Z,980.58
2019-03-04T04:27:53.999Z,980.57
2019-03-04T04:28:54.023Z,980.52
2019-03-04T04:29:53.857Z,980.48
2019-03-04T04:30:54.085Z,980.49
2019-03-04T04:31:54.801Z,980.54
2019-03-04T04:32:54.832Z,980.51
2019-03-04T04:34:54.016Z,980.50
2019-03-04T04:38:54.125Z,980.50
2019-03-04T04:47:54.399Z,980.41
2019-03-04T04:48:54.626Z,980.52
2019-03-04T04:50:54.692Z,980.53
2019-03-04T04:51:54.536Z,980.44
2019-03-04T04:52:54.550Z,980.41
2019-03-04T04:55:55.148Z,980.55
2019-03-04T04:56:54.873Z,980.52
2019-03-04T04:58:54.732Z,980.60
2019-03-04T04:59:54.758Z,980.50
2019-03-04T05:00:54.990Z,980.55
2019-03-04T05:03:55.614Z,980.53
2019-03-04T05:04:55.110Z,980.51
2019-03-04T05:05:54.937Z,980.43
2019-03-04T05:06:55.170Z,980.37
2019-03-04T05:07:55.006Z,980.44
2019-03-04T05:08:55.005Z,980.34
2019-03-04T05:09:55.060Z,980.19
2019-03-04T05:10:55.393Z,980.33
2019-03-04T05:11:55.118Z,980.43
2019-03-04T05:13:55.176Z,980.10
2019-03-04T05:14:55.213Z,980.23
2019-03-04T05:15:55.241Z,980.24
2019-03-04T05:16:55.265Z,980.01
2019-03-04T05:18:55.381Z,980.09
2019-03-04T05:19:55.762Z,980.08
2019-03-04T05:20:55.997Z,980.05
2019-03-04T05:21:55.620Z,980.03
2019-03-04T05:24:55.713Z,980.23
2019-03-04T05:25:55.741Z,980.27
2019-03-04T05:26:55.569Z,980.16
2019-03-04T05:28:56.142Z,980.34
2019-03-04T05:29:56.273Z,980.38
2019-03-04T05:30:55.892Z,980.47
2019-03-04T05:32:55.957Z,980.54
2019-03-04T05:33:55.782Z,980.50
2019-03-04T05:34:57.533Z,980.43
2019-03-04T05:35:55.844Z,980.39
2019-03-04T05:36:56.755Z,980.47
2019-03-04T05:39:56.168Z,980.64
2019-03-04T05:41:56.026Z,980.54
2019-03-04T05:44:56.116Z,980.41
2019-03-04T05:46:57.087Z,980.57
2019-03-04T05:48:56.438Z,980.50
2019-03-04T05:49:56.673Z,980.59
2019-03-04T05:51:56.328Z,980.57
2019-03-04T05:52:56.356Z,980.41
2019-03-04T05:53:56.789Z,980.55
2019-03-04T05:54:56.419Z,980.56
2019-03-04T05:59:56.566Z,980.57
2019-03-04T06:00:56.800Z,980.60
2019-03-04T06:04:56.717Z,980.48
2019-03-04T06:05:56.952Z,980.50
2019-03-04T06:07:56.789Z,980.47
2019-03-04T06:12:58.872Z,980.45
2019-03-04T06:13:57.192Z,980.48
2019-03-04T06:14:57.022Z,980.53
2019-03-04T06:15:57.059Z,980.48
2019-03-04T06:17:57.120Z,980.58
2019-03-04T06:18:57.146Z,980.58
2019-03-04T06:19:57.180Z,980.51
2019-03-04T06:20:57.207Z,980.63
2019-03-04T06:22:57.277Z,980.72
2019-03-04T06:24:57.327Z,980.88
2019-03-04T06:25:57.562Z,980.82
2019-03-04T06:26:57.594Z,980.83
2019-03-04T06:27:57.420Z,980.90
2019-03-04T06:28:57.757Z,980.91
2019-03-04T06:29:57.483Z,980.92
2019-03-04T06:30:57.728Z,980.88
2019-03-04T06:31:57.521Z,980.94
2019-03-04T06:32:57.880Z,980.88
2019-03-04T06:33:57.602Z,980.78
2019-03-04T06:34:57.651Z,980.96
2019-03-04T06:35:57.871Z,980.90
2019-03-04T06:36:57.903Z,980.89
2019-03-04T06:37:58.130Z,980.98
2019-03-04T06:38:57.757Z,980.97
2019-03-04T06:39:57.790Z,980.96
2019-03-04T06:40:57.820Z,981.05
2019-03-04T06:41:58.051Z,980.93
2019-03-04T06:42:58.594Z,981.02
2019-03-04T06:43:57.915Z,981.01
2019-03-04T06:46:58.209Z,981.20
2019-03-04T06:47:58.034Z,981.21
2019-03-04T06:49:59.509Z,981.26
2019-03-04T06:51:59.272Z,981.30
2019-03-04T06:53:58.196Z,981.42
2019-03-04T06:54:58.226Z,981.38
2019-03-04T06:55:58.256Z,981.37
2019-03-04T06:56:58.286Z,981.44
2019-03-04T06:57:58.319Z,981.44
2019-03-04T06:58:58.579Z,981.41
2019-03-04T07:01:58.465Z,981.53
2019-03-04T07:03:58.504Z,981.65
2019-03-04T07:04:59.439Z,981.60
2019-03-04T07:05:58.589Z,981.53
2019-03-04T07:06:58.598Z,981.57
2019-03-04T07:07:58.627Z,981.64
2019-03-04T07:08:58.659Z,981.62
2019-03-04T07:09:59.021Z,981.74
2019-03-04T07:10:58.722Z,981.75
2019-03-04T07:11:58.753Z,981.76
2019-03-04T07:12:58.786Z,981.86
2019-03-04T07:13:58.814Z,982.11
2019-03-04T07:14:58.848Z,981.91
2019-03-04T07:15:59.079Z,982.12
2019-03-04T07:16:58.932Z,982.15
2019-03-04T07:17:59.267Z,982.24
2019-03-04T07:18:58.971Z,982.29
2019-03-04T07:19:59.003Z,982.51
2019-03-04T07:20:59.032Z,982.50
2019-03-04T07:21:59.065Z,982.69
2019-03-04T07:22:59.095Z,982.97
2019-03-04T07:23:59.131Z,983.62
2019-03-04T07:24:59.163Z,983.39
2019-03-04T07:25:59.188Z,983.13
2019-03-04T07:26:59.226Z,983.35
2019-03-04T07:27:59.252Z,983.15
2019-03-04T07:28:59.281Z,983.00
2019-03-04T07:29:59.312Z,982.98
2019-03-04T07:30:59.345Z,983.03
2019-03-04T07:31:59.374Z,983.21
2019-03-04T07:32:59.408Z,983.09
2019-03-04T07:33:59.439Z,983.30
2019-03-04T07:34:59.465Z,983.21
2019-03-04T07:35:59.536Z,983.46
2019-03-04T07:36:59.525Z,983.45
2019-03-04T07:37:59.556Z,983.52
2019-03-04T07:38:59.585Z,983.53
2019-03-04T07:39:59.615Z,983.65
2019-03-04T07:40:59.645Z,983.70
2019-03-04T07:41:59.678Z,983.70
2019-03-04T07:42:59.705Z,983.74
2019-03-04T07:43:59.781Z,983.78
2019-03-04T07:44:59.765Z,984.01
2019-03-04T07:45:59.795Z,983.98
2019-03-04T07:46:59.823Z,983.66
2019-03-04T07:48:00.343Z,983.67
2019-03-04T07:48:59.883Z,983.84
2019-03-04T07:49:59.913Z,983.87
2019-03-04T07:50:59.941Z,983.88
2019-03-04T07:51:59.971Z,983.96
2019-03-04T07:52:59.999Z,983.94
2019-03-04T07:54:00.029Z,983.98
2019-03-04T07:55:00.059Z,983.96
2019-03-04T07:56:00.093Z,983.93
2019-03-04T07:57:00.117Z,984.07
2019-03-04T07:58:00.204Z,984.18
2019-03-04T07:59:00.177Z,984.12
2019-03-04T08:00:00.363Z,984.04
2019-03-04T08:01:00.235Z,984.20
2019-03-04T08:02:00.265Z,984.25
2019-03-04T08:03:00.295Z,984.31
2019-03-04T08:04:00.325Z,984.26
2019-03-04T08:05:00.357Z,984.26
2019-03-04T08:06:00.383Z,984.30
2019-03-04T08:07:00.413Z,984.28
2019-03-04T08:08:00.446Z,984.32
2019-03-04T08:09:00.471Z,984.29
2019-03-04T08:10:00.505Z,984.43
2019-03-04T08:11:01.332Z,984.16
2019-03-04T08:12:00.561Z,984.31
2019-03-04T08:13:00.591Z,984.55
2019-03-04T08:14:00.625Z,984.58
2019-03-04T08:15:00.650Z,983.87
2019-03-04T08:16:00.682Z,984.31
2019-03-04T08:17:00.709Z,984.37
2019-03-04T08:18:00.740Z,984.29
2019-03-04T08:19:00.770Z,984.12
2019-03-04T08:20:00.805Z,984.29
2019-03-04T08:21:00.828Z,984.24
2019-03-04T08:22:00.857Z,984.28
2019-03-04T08:23:00.912Z,984.32
2019-03-04T08:24:00.917Z,984.11
2019-03-04T08:25:00.946Z,984.30
2019-03-04T08:26:00.975Z,984.44
2019-03-04T08:27:01.007Z,984.49
2019-03-04T08:28:01.040Z,984.45
2019-03-04T08:29:01.063Z,984.39
2019-03-04T08:30:01.094Z,984.52
2019-03-04T08:31:01.124Z,984.43
2019-03-04T08:32:01.154Z,984.44
2019-03-04T08:33:01.186Z,984.45
2019-03-04T08:34:01.213Z,984.23
2019-03-04T08:35:01.244Z,984.47
2019-03-04T08:36:01.274Z,984.16
2019-03-04T08:37:01.303Z,984.31
2019-03-04T08:38:01.333Z,984.08
2019-03-04T08:39:01.371Z,984.23
2019-03-04T08:40:01.393Z,984.09
2019-03-04T08:41:01.420Z,984.21
2019-03-04T08:42:01.457Z,984.17
2019-03-04T08:43:01.482Z,983.81
2019-03-04T08:44:01.510Z,983.62
2019-03-04T08:45:01.541Z,983.77
2019-03-04T08:46:01.572Z,983.36
2019-03-04T08:47:01.602Z,983.71
2019-03-04T08:48:01.631Z,984.05
2019-03-04T08:49:01.660Z,983.97
2019-03-04T08:50:01.696Z,984.19
2019-03-04T08:51:02.412Z,984.23
2019-03-04T08:52:01.748Z,984.12
2019-03-04T08:53:01.778Z,984.64
2019-03-04T08:54:01.807Z,984.36
2019-03-04T08:55:01.838Z,983.95
2019-03-04T08:56:01.870Z,984.22
2019-03-04T08:57:04.092Z,984.29
2019-03-04T08:58:01.928Z,984.09
2019-03-04T08:59:01.966Z,984.19
2019-03-04T09:00:01.987Z,984.02
2019-03-04T09:01:02.016Z,983.84
2019-03-04T09:02:02.045Z,983.67
2019-03-04T09:03:02.077Z,983.65
2019-03-04T09:04:02.106Z,983.97
2019-03-04T09:05:02.137Z,984.16
2019-03-04T09:06:02.162Z,983.98
2019-03-04T09:07:03.975Z,983.99
2019-03-04T09:08:02.226Z,984.63
2019-03-04T09:09:02.252Z,984.63
2019-03-04T09:10:02.287Z,984.57
2019-03-04T09:11:02.414Z,984.48
2019-03-04T09:12:02.340Z,984.46
2019-03-04T09:13:02.373Z,984.25
2019-03-04T09:14:02.400Z,984.09
2019-03-04T09:15:02.430Z,983.95
2019-03-04T09:16:02.458Z,983.53
2019-03-04T09:17:02.488Z,983.27
2019-03-04T09:18:02.518Z,983.36
2019-03-04T09:19:02.548Z,983.43
2019-03-04T09:20:02.578Z,983.39
2019-03-04T09:21:02.609Z,983.46
2019-03-04T09:22:02.639Z,983.77
2019-03-04T09:23:02.673Z,983.91
2019-03-04T09:24:02.696Z,983.93
2019-03-04T09:25:02.727Z,984.18
2019-03-04T09:26:02.755Z,984.22
2019-03-04T09:27:02.785Z,984.55
2019-03-04T09:28:02.814Z,984.57
2019-03-04T09:29:02.842Z,984.33
2019-03-04T09:30:02.875Z,984.08
2019-03-04T09:31:02.905Z,984.11
2019-03-04T09:32:03.037Z,984.07
2019-03-04T09:33:02.965Z,984.26
2019-03-04T09:34:02.993Z,984.63
2019-03-04T09:35:03.023Z,984.40
2019-03-04T09:36:03.052Z,984.50
2019-03-04T09:37:03.082Z,984.44
2019-03-04T09:38:03.114Z,984.36
2019-03-04T09:39:03.140Z,984.37
2019-03-04T09:40:03.169Z,984.12
2019-03-04T09:41:03.198Z,984.16
2019-03-04T09:42:03.234Z,984.04
2019-03-04T09:43:03.258Z,984.21
2019-03-04T09:44:03.288Z,984.26
2019-03-04T09:45:03.320Z,984.32
2019-03-04T09:46:03.497Z,984.22
2019-03-04T09:47:03.377Z,984.11
2019-03-04T09:48:03.407Z,984.24
2019-03-04T09:49:03.433Z,984.25
2019-03-04T09:50:03.485Z,984.21
2019-03-04T09:51:03.495Z,984.14
2019-03-04T09:52:03.525Z,984.23
2019-03-04T09:53:03.554Z,984.25
2019-03-04T09:54:03.590Z,984.11
2019-03-04T09:55:03.613Z,984.12
2019-03-04T09:56:03.644Z,984.29
2019-03-04T09:57:03.671Z,984.32
2019-03-04T09:58:03.700Z,984.31
2019-03-04T09:59:03.733Z,984.17
2019-03-04T10:00:03.759Z,984.15
2019-03-04T10:01:03.789Z,984.13
2019-03-04T10:02:03.819Z,984.31
2019-03-04T10:03:03.895Z,984.18
2019-03-04T10:04:03.880Z,984.18
2019-03-04T10:05:03.908Z,984.19
2019-03-04T10:06:03.940Z,984.12
2019-03-04T10:07:03.969Z,984.09
2019-03-04T10:08:03.996Z,984.15
2019-03-04T10:09:04.027Z,984.25
2019-03-04T10:10:04.056Z,984.25
2019-03-04T10:11:04.085Z,984.25
2019-03-04T10:12:04.116Z,984.24
2019-03-04T10:13:04.143Z,984.31
2019-03-04T10:14:04.173Z,984.41
2019-03-04T10:15:08.304Z,984.41
2019-03-04T10:16:04.234Z,984.34
2019-03-04T10:17:04.263Z,984.41
2019-03-04T10:18:04.294Z,984.17
2019-03-04T10:19:04.324Z,984.34
2019-03-04T10:20:04.352Z,984.36
2019-03-04T10:21:04.382Z,984.41
2019-03-04T10:22:04.411Z,984.41
2019-03-04T10:23:04.443Z,984.38
2019-03-04T10:24:04.472Z,984.38
2019-03-04T10:25:04.501Z,984.38
2019-03-04T10:26:04.529Z,984.27
2019-03-04T10:27:04.558Z,984.14
2019-03-04T10:28:04.589Z,984.03
2019-03-04T10:29:04.617Z,983.93
2019-03-04T10:30:04.649Z,984.11
2019-03-04T10:31:04.681Z,984.25
2019-03-04T10:32:04.707Z,984.14
2019-03-04T10:33:04.737Z,984.11
2019-03-04T10:34:04.768Z,984.05
2019-03-04T10:35:04.796Z,984.13
2019-03-04T10:36:04.827Z,984.14
2019-03-04T10:37:04.887Z,984.17
2019-03-04T10:38:04.886Z,984.11
2019-03-04T10:39:04.915Z,983.97
2019-03-04T10:40:04.953Z,983.91
2019-03-04T10:41:04.976Z,983.84
2019-03-04T10:42:05.006Z,983.95
2019-03-04T10:43:05.033Z,984.09
2019-03-04T10:44:05.063Z,984.20
2019-03-04T10:45:05.094Z,984.09
2019-03-04T10:46:05.123Z,983.85
2019-03-04T10:47:05.154Z,983.79
2019-03-04T10:48:05.184Z,983.87
2019-03-04T10:49:05.214Z,983.98
2019-03-04T10:50:05.246Z,984.03
2019-03-04T10:51:05.276Z,984.11
2019-03-04T10:52:05.306Z,984.01
2019-03-04T10:53:05.336Z,984.01
2019-03-04T10:54:05.367Z,983.93
2019-03-04T10:55:05.398Z,983.99
2019-03-04T10:56:05.426Z,983.87
2019-03-04T10:57:05.459Z,983.92
2019-03-04T10:58:05.488Z,984.12
2019-03-04T10:59:05.542Z,984.06
2019-03-04T11:00:05.553Z,983.88
2019-03-04T11:01:05.581Z,983.89
2019-03-04T11:02:05.611Z,983.82
2019-03-04T11:03:05.644Z,983.84
2019-03-04T11:04:05.674Z,983.87
2019-03-04T11:05:05.702Z,983.89
2019-03-04T11:06:05.732Z,983.83
2019-03-04T11:07:05.763Z,983.81
2019-03-04T11:08:05.793Z,983.72
2019-03-04T11:09:05.824Z,983.62
2019-03-04T11:10:05.875Z,983.69
2019-03-04T11:11:05.910Z,983.80
2019-03-04T11:12:05.936Z,983.66
2019-03-04T11:13:05.990Z,983.37
2019-03-04T11:15:06.207Z,983.39
2019-03-04T11:16:06.061Z,983.63
2019-03-04T11:17:06.092Z,983.69
2019-03-04T11:18:06.298Z,983.57
2019-03-04T11:19:06.147Z,983.63
2019-03-04T11:20:06.181Z,983.65
2019-03-04T11:21:06.187Z,983.51
2019-03-04T11:22:06.246Z,983.62
2019-03-04T11:23:06.273Z,983.66
2019-03-04T11:24:06.282Z,983.67
2019-03-04T11:25:06.361Z,983.75
2019-03-04T11:26:06.365Z,983.75
2019-03-04T11:27:06.393Z,983.84
2019-03-04T11:28:06.399Z,983.63
2019-03-04T11:30:06.789Z,983.75
2019-03-04T11:31:06.489Z,983.68
2019-03-04T11:32:06.540Z,983.78
2019-03-04T11:33:06.877Z,983.91
2019-03-04T11:34:06.604Z,983.85
2019-03-04T11:35:06.634Z,983.84
2019-03-04T11:36:06.663Z,983.75
2019-03-04T11:37:06.694Z,983.82
2019-03-04T11:38:06.703Z,983.92
2019-03-04T11:39:06.755Z,983.71
2019-03-04T11:40:06.785Z,983.69
2019-03-04T11:41:06.814Z,983.71
2019-03-04T11:42:06.841Z,983.64
2019-03-04T11:43:07.078Z,983.75
2019-03-04T11:44:07.106Z,983.56
2019-03-04T11:46:06.967Z,983.62
2019-03-04T11:47:07.195Z,983.68
2019-03-04T11:48:07.633Z,983.52
2019-03-04T11:49:07.360Z,983.43
2019-03-04T11:50:07.285Z,983.44
2019-03-04T11:51:07.115Z,983.57
2019-03-04T11:52:07.345Z,983.51
2019-03-04T11:53:07.172Z,983.49
2019-03-04T11:54:07.206Z,983.43
2019-03-04T11:55:07.239Z,983.49
2019-03-04T11:57:07.297Z,983.49
2019-03-04T11:58:07.323Z,983.64
2019-03-04T11:59:07.662Z,983.52
2019-03-04T12:00:07.634Z,983.48
2019-03-04T12:01:07.418Z,983.50
2019-03-04T12:02:07.447Z,983.56
2019-03-04T12:03:07.653Z,983.44
2019-03-04T12:04:07.503Z,983.37
2019-03-04T12:05:07.535Z,983.65
2019-03-04T12:06:07.564Z,983.60
2019-03-04T12:07:07.595Z,983.56
2019-03-04T12:08:07.601Z,983.56
2019-03-04T12:09:07.667Z,983.37
2019-03-04T12:10:07.888Z,983.53
2019-03-04T12:11:07.694Z,983.47
2019-03-04T12:12:07.949Z,983.48
2019-03-04T12:13:07.778Z,983.39
2019-03-04T12:14:07.807Z,983.27
2019-03-04T12:15:07.839Z,983.39
2019-03-04T12:16:07.869Z,983.37
2019-03-04T12:17:07.875Z,983.42
2019-03-04T12:18:07.911Z,983.64
2019-03-04T12:19:07.939Z,983.32
2019-03-04T12:20:07.968Z,983.38
2019-03-04T12:21:07.998Z,983.50
2019-03-04T12:22:08.031Z,983.82
2019-03-04T12:23:08.061Z,983.31
2019-03-04T12:24:08.093Z,983.31
2019-03-04T12:25:08.138Z,983.07
2019-03-04T12:26:08.155Z,983.09
2019-03-04T12:27:08.188Z,983.33
2019-03-04T12:28:08.220Z,983.27
2019-03-04T12:29:08.254Z,983.10
2019-03-04T12:30:08.324Z,983.21
2019-03-04T12:31:08.316Z,983.25
2019-03-04T12:32:08.347Z,984.29
2019-03-04T12:33:08.380Z,983.20
2019-03-04T12:34:08.462Z,983.22
2019-03-04T12:35:08.445Z,983.40
2019-03-04T12:36:08.476Z,983.37
2019-03-04T12:37:08.509Z,985.42
2019-03-04T12:38:08.546Z,983.12
2019-03-04T12:39:08.575Z,983.16
2019-03-04T12:40:08.607Z,982.95
2019-03-04T12:41:08.644Z,982.98
2019-03-04T12:42:08.673Z,983.42
2019-03-04T12:43:08.707Z,985.29
2019-03-04T12:44:08.741Z,985.08
2019-03-04T12:45:08.775Z,983.42
2019-03-04T12:46:08.808Z,984.91
2019-03-04T12:47:08.843Z,984.07
2019-03-04T12:48:08.879Z,984.76
2019-03-04T12:49:08.913Z,984.72
2019-03-04T12:50:08.950Z,983.31
2019-03-04T12:51:08.987Z,984.81
2019-03-04T12:52:09.024Z,984.63
2019-03-04T12:53:09.062Z,984.62
2019-03-04T12:54:09.102Z,983.89
2019-03-04T12:55:09.139Z,982.55
2019-03-04T12:56:09.178Z,984.98
2019-03-04T12:57:09.218Z,982.58
2019-03-04T12:58:09.258Z,982.70
2019-03-04T12:59:09.299Z,982.91
2019-03-04T13:00:09.362Z,982.53
2019-03-04T13:01:12.203Z,984.85
2019-03-04T13:02:09.419Z,982.93
2019-03-04T13:03:09.460Z,983.89
2019-03-04T13:04:09.502Z,982.27
2019-03-04T13:05:09.546Z,982.44
2019-03-04T13:06:09.579Z,982.30
2019-03-04T13:07:09.620Z,982.65
2019-03-04T13:08:09.662Z,983.08
2019-03-04T13:09:14.598Z,982.58
2019-03-04T13:10:09.746Z,982.82
2019-03-04T13:11:09.782Z,983.84
2019-03-04T13:12:09.819Z,983.03
2019-03-04T13:13:09.860Z,982.14
2019-03-04T13:14:09.899Z,982.26
2019-03-04T13:15:09.937Z,982.35
2019-03-04T13:16:09.976Z,982.65
2019-03-04T13:17:10.013Z,982.15
2019-03-04T13:18:10.053Z,982.32
2019-03-04T13:19:10.092Z,982.22
2019-03-04T13:20:10.130Z,982.37
2019-03-04T13:21:10.167Z,982.43
2019-03-04T13:22:10.204Z,983.01
2019-03-04T13:23:10.243Z,983.91
2019-03-04T13:24:10.283Z,984.30
2019-03-04T13:25:10.315Z,984.63
2019-03-04T13:26:10.353Z,982.66
2019-03-04T13:27:10.392Z,984.49
2019-03-04T13:28:10.429Z,984.64
2019-03-04T13:29:10.468Z,984.18
2019-03-04T13:30:10.502Z,984.76
2019-03-04T13:31:10.544Z,984.95
2019-03-04T13:32:10.580Z,984.79
2019-03-04T13:33:10.620Z,984.55
2019-03-04T13:34:10.655Z,984.61
2019-03-04T13:35:10.693Z,984.68
2019-03-04T13:36:10.732Z,984.67
2019-03-04T13:37:11.604Z,984.66
2019-03-04T13:38:10.834Z,984.57
2019-03-04T13:39:10.873Z,982.37
2019-03-04T13:40:10.893Z,984.58
2019-03-04T13:41:10.930Z,984.44
2019-03-04T13:42:10.970Z,984.54
2019-03-04T13:43:12.224Z,984.67
2019-03-04T13:44:11.054Z,984.83
2019-03-04T13:45:11.091Z,985.00
2019-03-04T13:46:12.547Z,984.46
2019-03-04T13:47:11.174Z,984.67
2019-03-04T13:48:11.217Z,984.87
2019-03-04T13:49:11.256Z,982.68
2019-03-04T13:50:11.325Z,983.29
2019-03-04T13:51:11.341Z,982.92
2019-03-04T13:52:11.406Z,983.50
2019-03-04T13:53:11.649Z,984.14
2019-03-04T13:56:11.776Z,983.82
2019-03-04T13:57:11.592Z,985.01
2019-03-04T13:58:11.657Z,983.66
2019-03-04T13:59:11.675Z,982.91
2019-03-04T14:00:11.716Z,982.76
2019-03-04T14:01:11.758Z,982.89
2019-03-04T14:02:11.795Z,982.99
2019-03-04T14:03:11.836Z,983.19
2019-03-04T14:04:11.878Z,982.98
2019-03-04T14:05:11.918Z,983.03
2019-03-04T14:06:11.958Z,982.94
2019-03-04T14:07:11.996Z,983.12
2019-03-04T14:08:12.034Z,982.94
2019-03-04T14:09:12.071Z,982.94
2019-03-04T14:10:12.112Z,982.91
2019-03-04T14:11:12.155Z,983.23
2019-03-04T14:12:12.187Z,984.41
2019-03-04T14:13:12.227Z,983.27
2019-03-04T14:14:12.263Z,985.39
2019-03-04T14:15:12.299Z,985.30
2019-03-04T14:16:12.336Z,983.41
2019-03-04T14:17:12.373Z,985.06
2019-03-04T14:18:12.432Z,985.09
2019-03-04T14:19:12.448Z,983.12
2019-03-04T14:20:12.487Z,982.89
2019-03-04T14:21:12.524Z,982.90
2019-03-04T14:22:12.563Z,983.11
2019-03-04T14:23:12.599Z,983.54
2019-03-04T14:24:12.639Z,983.24
2019-03-04T14:25:12.677Z,983.34
2019-03-04T14:26:12.715Z,984.79
2019-03-04T14:27:12.755Z,983.50
2019-03-04T14:28:12.792Z,983.19
2019-03-04T14:29:12.827Z,983.41
2019-03-04T14:30:12.869Z,983.25
2019-03-04T14:31:12.910Z,983.48
2019-03-04T14:32:12.950Z,983.97
2019-03-04T14:33:12.983Z,984.11
2019-03-04T14:34:13.023Z,984.21
2019-03-04T14:35:13.057Z,984.51
2019-03-04T14:36:13.097Z,984.75
2019-03-04T14:37:13.130Z,984.96
2019-03-04T14:38:13.168Z,985.21